Silver Star, Montana
Current Conditions -  °F | °C
As of 1:53 AM on Saturday 01 Nov 2014 (Local Time) from KBTM Reporting Station
Clear Clear  
Wind Chill: 27°   Ceiling: Unl
Heat Index: 33°   Visibility: 10mi
Dew Point: 25°   Wind: 7mph
Humidity: 72%   Direction: 150°SSE
Pressure: 29.79"   Gusts: NA
Location:  45.69°N, 112.28°W
Report Text: KBTM 010753Z AUTO 15006KT 10SM CLR 01/M04 A2979 RMK AO2 SLP065 T00061039
Loading
Personal Weather Stations






























Interactive Weather Map
Tropical Storm Tracking
New forecast layout! Learn more

10-Day Weather Forecast

Advertisements
Track Severe Weather on mobile